Time;durP1;ratioP1;P1;durP2;ratioP2;P2;SDS_P1;SDS_P2;PMS_P1;PMS_P2;Temp;Humidity;BMP_temperature;BMP_pressure;BME280_temperature;BME280_humidity;BME280_pressure;Samples;Min_cycle;Max_cycle;Signal;HPM_P1;HPM_P2
2021/05/18 00:02:17;;;;;;;67.28;51.72;;;22.30;90.10;;;;;;4995982;28;20061;-82
2021/05/18 00:04:43;;;;;;;64.60;51.92;;;22.20;90.10;;;;;;5012872;28;20064;-82
2021/05/18 00:07:14;;;;;;;71.35;53.80;;;22.30;90.10;;;;;;4995822;28;20054;-82
2021/05/18 00:12:24;;;;;;;66.65;52.97;;;22.20;90.10;;;;;;5013419;28;20395;-82
2021/05/18 00:14:51;;;;;;;63.47;52.03;;;22.30;90.10;;;;;;4995652;28;20124;-82
2021/05/18 00:17:16;;;;;;;67.28;52.83;;;22.30;90.10;;;;;;5012997;28;20034;-82
2021/05/18 00:19:42;;;;;;;62.85;50.70;;;22.20;90.10;;;;;;5013488;28;20041;-82
2021/05/18 00:22:08;;;;;;;64.38;50.75;;;22.20;90.10;;;;;;4996105;28;20498;-82
2021/05/18 00:24:33;;;;;;;67.50;53.30;;;22.20;90.20;;;;;;4996557;28;20541;-83
2021/05/18 00:27:03;;;;;;;63.90;50.65;;;22.20;90.20;;;;;;5000340;28;20367;-82
2021/05/18 00:29:29;;;;;;;62.95;50.95;;;22.20;90.20;;;;;;4979624;28;20085;-82
2021/05/18 00:31:54;;;;;;;64.18;50.25;;;22.20;90.20;;;;;;4996777;28;20050;-82
2021/05/18 00:34:20;;;;;;;59.95;48.55;;;22.20;90.10;;;;;;5029352;28;20030;-81
2021/05/18 00:36:46;;;;;;;59.13;47.38;;;22.20;90.10;;;;;;4983275;28;20042;-82
2021/05/18 00:39:11;;;;;;;62.40;49.17;;;22.20;90.20;;;;;;4998680;28;20049;-81
2021/05/18 00:41:37;;;;;;;58.45;46.92;;;22.20;90.20;;;;;;4998872;28;20033;-82
2021/05/18 00:44:06;;;;;;;63.25;49.67;;;22.20;90.20;;;;;;4981626;28;20368;-82
2021/05/18 00:46:32;;;;;;;61.38;47.67;;;22.20;90.20;;;;;;4995944;28;20088;-82
2021/05/18 00:48:57;;;;;;;62.28;47.47;;;22.20;90.10;;;;;;4962964;28;20464;-82
2021/05/18 00:51:25;;;;;;;57.13;45.17;;;22.20;90.10;;;;;;5013474;28;20049;-81
2021/05/18 00:53:51;;;;;;;58.10;46.45;;;22.20;90.10;;;;;;4996164;28;20029;-81
2021/05/18 00:58:25;;;;;;;56.95;47.35;;;22.20;90.10;;;;;;4963665;28;20044;-81
2021/05/18 00:59:18;;;;;;;58.63;46.75;;;22.20;90.10;;;;;;4989406;28;20109;-80
2021/05/18 01:01:43;;;;;;;55.22;45.40;;;22.20;90.20;;;;;;4998272;28;20056;-82
2021/05/18 01:04:13;;;;;;;54.97;44.40;;;22.20;90.20;;;;;;5015802;28;20108;-81
2021/05/18 01:06:40;;;;;;;57.13;44.58;;;22.20;90.20;;;;;;4966735;28;20030;-83
2021/05/18 01:09:12;;;;;;;53.10;43.90;;;22.20;90.20;;;;;;5013898;28;20030;-82
2021/05/18 01:11:40;;;;;;;54.08;42.42;;;22.20;90.20;;;;;;4995872;28;20022;-82
2021/05/18 01:14:12;;;;;;;51.90;42.42;;;22.20;90.30;;;;;;5013593;28;20121;-81
2021/05/18 01:16:41;;;;;;;56.45;43.80;;;22.20;90.20;;;;;;5013331;28;20464;-82
2021/05/18 01:19:08;;;;;;;49.88;41.10;;;22.20;90.20;;;;;;4995822;28;20026;-81
2021/05/18 01:21:34;;;;;;;51.50;41.55;;;22.20;90.30;;;;;;5013556;28;20030;-81
2021/05/18 01:24:01;;;;;;;50.88;40.38;;;22.20;90.30;;;;;;5012563;28;20030;-81
2021/05/18 01:26:30;;;;;;;50.63;40.25;;;22.20;90.30;;;;;;4979156;28;20030;-81
2021/05/18 01:28:56;;;;;;;49.85;40.00;;;22.20;90.30;;;;;;4994750;28;20399;-81
2021/05/18 01:31:24;;;;;;;50.15;40.15;;;22.20;90.30;;;;;;5012655;28;20026;-81
2021/05/18 01:33:50;;;;;;;51.38;39.53;;;22.20;90.30;;;;;;5012540;28;20026;-81
2021/05/18 01:36:18;;;;;;;49.97;39.72;;;22.20;90.30;;;;;;4979080;28;20041;-80
2021/05/18 01:43:58;;;;;;;47.08;37.63;;;22.20;90.30;;;;;;5013178;28;20033;-81
2021/05/18 01:46:26;;;;;;;48.08;38.05;;;22.20;90.30;;;;;;4995284;28;20036;-81
2021/05/18 01:48:59;;;;;;;47.33;37.25;;;22.20;90.30;;;;;;4994906;28;20034;-80
2021/05/18 01:51:29;;;;;;;44.83;36.33;;;22.20;90.30;;;;;;5012684;28;20026;-80
2021/05/18 01:53:58;;;;;;;46.17;36.40;;;22.20;90.30;;;;;;5012405;28;20041;-81
2021/05/18 01:59:07;;;;;;;42.78;34.75;;;22.20;90.30;;;;;;4996127;28;20084;-81
2021/05/18 02:01:33;;;;;;;43.38;35.08;;;22.20;90.30;;;;;;4997429;28;20040;-81
2021/05/18 02:03:59;;;;;;;42.58;34.03;;;22.20;90.40;;;;;;4997782;28;20030;-81
2021/05/18 02:06:25;;;;;;;42.15;33.38;;;22.20;90.40;;;;;;5015370;28;20080;-81
2021/05/18 02:08:51;;;;;;;42.35;31.85;;;22.20;90.40;;;;;;5015167;28;20105;-81
2021/05/18 02:11:17;;;;;;;37.50;30.30;;;22.20;90.40;;;;;;5014939;28;20039;-81
2021/05/18 02:13:47;;;;;;;41.60;33.22;;;22.20;90.40;;;;;;4997653;28;20034;-81
2021/05/18 02:16:59;;;;;;;37.85;31.48;;;22.20;90.40;;;;;;4997789;28;20038;-81
2021/05/18 02:27:07;;;;;;;35.77;30.33;;;22.20;90.40;;;;;;5014746;28;20128;-81
2021/05/18 02:29:33;;;;;;;35.08;28.00;;;22.10;90.40;;;;;;4997468;28;20476;-81
2021/05/18 02:31:59;;;;;;;34.33;27.58;;;22.20;90.40;;;;;;4981044;28;20030;-82
2021/05/18 02:34:24;;;;;;;34.80;28.05;;;22.20;90.40;;;;;;4965115;28;20034;-81
2021/05/18 02:36:50;;;;;;;33.75;27.83;;;22.20;90.40;;;;;;4997299;28;20037;-82
2021/05/18 02:39:16;;;;;;;35.75;28.35;;;22.20;90.50;;;;;;4981034;28;20456;-82
2021/05/18 02:41:42;;;;;;;30.70;25.77;;;22.20;90.50;;;;;;4997507;28;20054;-82
2021/05/18 02:44:17;;;;;;;33.03;27.02;;;22.20;90.50;;;;;;4980732;28;20069;-82
2021/05/18 02:49:26;;;;;;;31.33;25.92;;;22.20;90.40;;;;;;5000308;28;20091;-82
2021/05/18 02:51:52;;;;;;;30.50;24.48;;;22.10;90.40;;;;;;4997235;28;20045;-82
2021/05/18 02:54:23;;;;;;;30.30;25.02;;;22.10;90.40;;;;;;5014798;28;20033;-81
2021/05/18 02:59:19;;;;;;;30.83;24.92;;;22.20;90.50;;;;;;4997895;28;20464;-82
2021/05/18 03:02:05;;;;;;;29.88;24.45;;;22.20;90.50;;;;;;4981371;28;20034;-81
2021/05/18 03:04:31;;;;;;;29.08;23.83;;;22.20;90.50;;;;;;5027194;28;20042;-82
2021/05/18 03:06:57;;;;;;;28.60;23.73;;;22.20;90.40;;;;;;5020397;28;20030;-84
2021/05/18 03:09:24;;;;;;;27.35;22.63;;;22.10;90.40;;;;;;5005328;28;20089;-82
2021/05/18 03:11:51;;;;;;;28.20;22.23;;;22.10;90.40;;;;;;5038251;28;20064;-80
2021/05/18 03:14:17;;;;;;;27.75;22.48;;;22.20;90.40;;;;;;5004263;28;20101;-80
2021/05/18 03:16:46;;;;;;;27.92;21.98;;;22.10;90.40;;;;;;5037617;28;20087;-80
2021/05/18 03:19:13;;;;;;;27.58;22.00;;;22.20;90.40;;;;;;4999965;28;20026;-82
2021/05/18 03:21:40;;;;;;;25.38;21.08;;;22.10;90.40;;;;;;5003244;28;20045;-82
2021/05/18 03:24:06;;;;;;;26.40;21.13;;;22.10;90.40;;;;;;5001327;28;20037;-82
2021/05/18 03:26:33;;;;;;;23.48;20.10;;;22.20;90.40;;;;;;5018226;28;20464;-82
2021/05/18 03:29:10;;;;;;;23.05;18.90;;;22.10;90.60;;;;;;4980658;28;20057;-82
2021/05/18 03:34:35;;;;;;;22.97;19.33;;;22.20;90.50;;;;;;5014459;28;20056;-82
2021/05/18 03:37:14;;;;;;;23.00;18.60;;;22.10;90.40;;;;;;5013770;28;20276;-82
2021/05/18 03:39:41;;;;;;;23.35;18.60;;;22.10;90.40;;;;;;4996624;28;20029;-82
2021/05/18 03:42:18;;;;;;;21.45;17.50;;;22.10;90.40;;;;;;4979859;28;20117;-81
2021/05/18 03:44:57;;;;;;;21.45;17.98;;;22.10;90.40;;;;;;4998466;28;20034;-82
2021/05/18 04:17:04;;;;;;;16.50;13.73;;;22.10;90.50;;;;;;5013009;28;20379;-81
2021/05/18 04:19:35;;;;;;;16.05;13.48;;;22.10;90.50;;;;;;4979237;28;20034;-82
2021/05/18 04:41:23;;;;;;;14.43;12.00;;;22.10;90.50;;;;;;4984495;28;20076;-81
2021/05/18 04:51:44;;;;;;;12.80;10.48;;;22.10;90.50;;;;;;5013297;28;20045;-81
2021/05/18 04:54:49;;;;;;;12.55;10.75;;;22.10;90.50;;;;;;4995056;28;20387;-81
2021/05/18 05:00:07;;;;;;;12.80;10.43;;;22.10;90.50;;;;;;4998273;28;20061;-81
2021/05/18 05:08:12;;;;;;;;;;;22.10;90.60;;;;;;5013137;28;20087;-83
2021/05/18 05:15:37;;;;;;;9.43;8.35;;;22.10;90.60;;;;;;5012662;28;20046;-81
2021/05/18 05:18:02;;;;;;;10.70;8.85;;;22.00;90.60;;;;;;5012222;28;20030;-84
2021/05/18 05:20:29;;;;;;;12.02;9.60;;;22.00;90.50;;;;;;4994898;28;20033;-81
2021/05/18 05:22:55;;;;;;;11.25;9.10;;;22.10;90.50;;;;;;4978838;28;20376;-81
2021/05/18 05:25:21;;;;;;;9.73;8.07;;;22.10;90.50;;;;;;4978786;28;20038;-81
2021/05/18 05:27:46;;;;;;;10.10;8.15;;;22.10;90.40;;;;;;4994830;28;20058;-81
2021/05/18 05:30:12;;;;;;;9.15;7.90;;;22.10;90.40;;;;;;4995377;28;20423;-81
2021/05/18 05:32:38;;;;;;;8.68;7.78;;;22.10;90.40;;;;;;4995888;28;20511;-81
2021/05/18 05:35:04;;;;;;;8.93;7.53;;;22.10;90.40;;;;;;4966165;28;20472;-83
2021/05/18 05:37:30;;;;;;;10.07;8.10;;;22.10;90.40;;;;;;5000169;28;20042;-80
2021/05/18 05:39:56;;;;;;;7.53;6.72;;;22.10;90.40;;;;;;5001476;28;20125;-81
2021/05/18 05:42:23;;;;;;;7.88;7.07;;;22.10;90.40;;;;;;5000074;28;20542;-81
2021/05/18 05:44:49;;;;;;;9.23;7.45;;;22.10;90.40;;;;;;4984328;28;20495;-81
2021/05/18 05:47:14;;;;;;;8.05;7.18;;;22.10;90.40;;;;;;4985160;28;20034;-81
2021/05/18 05:49:40;;;;;;;7.25;6.47;;;22.10;90.30;;;;;;4999306;28;20037;-81
2021/05/18 05:52:07;;;;;;;7.88;6.53;;;22.10;90.30;;;;;;5016907;28;20028;-83
2021/05/18 05:54:35;;;;;;;7.78;6.28;;;22.10;90.20;;;;;;5017539;28;20065;-81
2021/05/18 05:57:01;;;;;;;7.03;6.32;;;22.10;90.20;;;;;;5015973;28;20034;-82
2021/05/18 05:59:26;;;;;;;7.72;6.50;;;22.10;90.30;;;;;;4982194;28;20038;-81
2021/05/18 06:01:52;;;;;;;8.20;6.07;;;22.20;90.30;;;;;;4982152;28;20471;-81
2021/05/18 06:04:18;;;;;;;6.82;5.97;;;22.20;90.30;;;;;;4981905;28;20034;-81
2021/05/18 06:06:43;;;;;;;7.97;6.60;;;22.20;90.30;;;;;;4998565;28;20127;-81
2021/05/18 06:09:10;;;;;;;6.93;5.65;;;22.20;90.30;;;;;;4997688;28;20034;-82
2021/05/18 06:17:22;;;;;;;4.38;3.97;;;22.20;90.40;;;;;;4985505;28;20050;-81
2021/05/18 06:42:02;;;;;;;3.13;2.80;;;22.20;90.50;;;;;;4999291;28;20050;-82
2021/05/18 06:50:45;;;;;;;3.08;2.78;;;22.20;90.50;;;;;;5015293;28;20111;-82
2021/05/18 06:52:47;;;;;;;2.50;2.30;;;22.30;90.50;;;;;;5004104;28;20066;-82
2021/05/18 06:55:19;;;;;;;2.92;2.20;;;22.20;90.50;;;;;;5014399;28;20053;-84
2021/05/18 06:57:48;;;;;;;2.70;2.35;;;22.30;90.50;;;;;;4981846;28;20037;-82
2021/05/18 07:00:19;;;;;;;2.45;2.25;;;22.30;90.50;;;;;;4997141;28;20034;-84
2021/05/18 07:02:46;;;;;;;2.50;2.30;;;22.30;90.50;;;;;;4997025;28;20092;-82
2021/05/18 07:07:40;;;;;;;2.20;2.00;;;22.30;90.50;;;;;;4997642;28;20444;-82
2021/05/18 07:10:06;;;;;;;2.83;2.25;;;22.30;90.50;;;;;;4997943;28;20030;-81
2021/05/18 07:12:32;;;;;;;2.47;2.28;;;22.30;90.50;;;;;;4998440;28;20113;-81
2021/05/18 07:14:59;;;;;;;1.80;1.70;;;22.30;90.50;;;;;;4997039;28;20117;-81
2021/05/18 07:17:25;;;;;;;2.08;1.88;;;22.30;90.50;;;;;;4997389;28;20104;-81
2021/05/18 07:19:51;;;;;;;2.25;2.05;;;22.30;90.50;;;;;;4981050;28;20456;-81
2021/05/18 07:22:17;;;;;;;2.65;2.10;;;22.30;90.50;;;;;;4996931;28;20030;-81
2021/05/18 07:24:43;;;;;;;2.38;2.10;;;22.30;90.50;;;;;;4997284;28;20040;-81
2021/05/18 07:27:09;;;;;;;2.88;2.28;;;22.30;90.50;;;;;;4981309;28;20030;-82
2021/05/18 07:29:35;;;;;;;2.35;2.15;;;22.30;90.50;;;;;;5014305;28;20061;-81
2021/05/18 07:32:01;;;;;;;2.60;2.33;;;22.30;90.40;;;;;;4980989;28;20030;-82
2021/05/18 07:34:27;;;;;;;2.95;2.47;;;22.30;90.40;;;;;;4964148;28;20045;-81
2021/05/18 07:36:53;;;;;;;2.60;2.40;;;22.30;90.50;;;;;;4964416;28;20129;-81
2021/05/18 07:39:18;;;;;;;3.38;2.72;;;22.30;90.50;;;;;;4996201;28;20034;-82
2021/05/18 07:41:44;;;;;;;3.30;2.65;;;22.30;90.50;;;;;;4996990;28;20033;-81
2021/05/18 07:44:10;;;;;;;3.28;2.88;;;22.40;90.50;;;;;;4980251;28;20543;-80
2021/05/18 07:46:41;;;;;;;4.28;3.25;;;22.40;90.50;;;;;;4996470;28;20032;-81
2021/05/18 07:49:14;;;;;;;3.88;3.15;;;22.30;90.50;;;;;;4997394;28;20030;-81
2021/05/18 07:59:33;;;;;;;3.88;3.45;;;22.30;90.40;;;;;;4980149;28;20269;-81
2021/05/18 08:07:34;;;;;;;5.00;4.15;;;22.30;90.50;;;;;;4998645;28;20072;-81
2021/05/18 08:12:41;;;;;;;5.93;5.07;;;22.40;90.50;;;;;;4998000;28;20033;-81
2021/05/18 08:20:31;;;;;;;6.45;4.80;;;22.40;90.60;;;;;;5013191;28;20042;-82
2021/05/18 10:36:12;;;;;;;3.65;3.20;;;22.60;90.50;;;;;;5015242;28;20392;-81
2021/05/18 10:38:48;;;;;;;3.67;3.28;;;22.60;90.50;;;;;;4997799;28;20088;-82
2021/05/18 10:41:24;;;;;;;4.05;3.60;;;22.60;90.50;;;;;;4998092;28;20028;-81
2021/05/18 10:44:01;;;;;;;4.28;3.60;;;22.60;90.50;;;;;;5015322;28;20113;-82
2021/05/18 10:46:31;;;;;;;3.40;3.00;;;22.60;90.50;;;;;;4998084;28;20054;-82
2021/05/18 10:49:18;;;;;;;4.30;3.88;;;22.60;90.50;;;;;;4997497;28;20034;-82
2021/05/18 10:51:54;;;;;;;3.70;3.35;;;22.70;90.50;;;;;;4981809;28;20132;-82
2021/05/18 10:54:27;;;;;;;3.90;3.25;;;22.70;90.50;;;;;;5015273;28;20040;-81
2021/05/18 10:56:56;;;;;;;5.53;3.95;;;22.70;90.50;;;;;;4981307;28;20041;-81
2021/05/18 10:59:26;;;;;;;5.22;3.90;;;22.70;90.50;;;;;;4997739;28;20026;-81
2021/05/18 11:02:06;;;;;;;4.18;3.42;;;22.70;90.50;;;;;;5015113;28;20097;-81
2021/05/18 11:04:38;;;;;;;4.20;3.47;;;22.70;90.50;;;;;;5015125;28;20494;-81
2021/05/18 11:07:05;;;;;;;3.47;3.15;;;22.70;90.50;;;;;;4997245;28;20125;-81
2021/05/18 11:09:31;;;;;;;4.55;3.58;;;22.70;90.50;;;;;;4997354;28;20034;-81
2021/05/18 11:12:04;;;;;;;3.90;3.22;;;22.70;90.50;;;;;;4997198;28;20472;-81
2021/05/18 11:14:34;;;;;;;4.35;3.83;;;22.70;90.50;;;;;;4996998;28;20025;-81
2021/05/18 11:17:21;;;;;;;4.78;3.65;;;22.70;90.50;;;;;;4997129;28;20816;-82
2021/05/18 11:19:53;;;;;;;4.07;3.50;;;22.70;90.50;;;;;;4996996;28;20124;-81
2021/05/18 11:23:19;;;;;;;5.00;4.38;;;22.70;90.50;;;;;;4997177;28;20029;-81
2021/05/18 11:25:06;;;;;;;4.75;4.18;;;22.70;90.50;;;;;;5013980;28;20064;-81
2021/05/18 11:27:32;;;;;;;4.03;3.50;;;22.70;90.50;;;;;;5014776;28;20029;-81
2021/05/18 11:29:58;;;;;;;4.63;3.90;;;22.70;90.50;;;;;;5014865;28;20042;-81
2021/05/18 11:32:24;;;;;;;3.92;3.53;;;22.70;90.50;;;;;;4980294;28;20026;-81
2021/05/18 11:34:51;;;;;;;4.45;3.83;;;22.70;90.50;;;;;;4980562;28;20096;-81
2021/05/18 11:37:18;;;;;;;4.22;3.42;;;22.70;90.50;;;;;;5014056;28;20073;-81
2021/05/18 11:39:43;;;;;;;4.60;3.72;;;22.70;90.50;;;;;;5014260;28;20061;-82
2021/05/18 11:42:09;;;;;;;4.90;3.90;;;22.70;90.50;;;;;;4996880;28;20463;-81
2021/05/18 11:44:36;;;;;;;3.75;3.33;;;22.70;90.40;;;;;;4996690;28;20105;-81
2021/05/18 11:47:03;;;;;;;4.43;3.85;;;22.70;90.40;;;;;;5014212;28;20034;-81
2021/05/18 11:49:29;;;;;;;4.15;3.70;;;22.70;90.50;;;;;;4996727;28;20068;-81
2021/05/18 11:51:56;;;;;;;4.25;3.78;;;22.70;90.50;;;;;;4996875;28;20030;-82
2021/05/18 11:54:25;;;;;;;4.10;3.30;;;22.70;90.50;;;;;;5014503;28;20030;-81
2021/05/18 11:56:57;;;;;;;4.20;3.53;;;22.70;90.50;;;;;;4995938;28;20034;-81
2021/05/18 11:59:24;;;;;;;3.83;3.42;;;22.70;90.50;;;;;;5014409;28;20088;-81
2021/05/18 12:02:00;;;;;;;4.30;3.53;;;22.70;90.40;;;;;;4996349;28;20120;-82
2021/05/18 12:04:28;;;;;;;3.75;3.22;;;22.80;90.50;;;;;;5014064;28;20030;-81
2021/05/18 12:07:04;;;;;;;3.50;3.20;;;22.70;90.40;;;;;;4996137;28;20056;-82
2021/05/18 12:09:32;;;;;;;3.88;3.30;;;22.70;90.40;;;;;;5014063;28;20096;-81
2021/05/18 12:12:00;;;;;;;3.65;3.10;;;22.80;90.50;;;;;;4980203;28;20116;-81
2021/05/18 12:14:26;;;;;;;4.97;3.20;;;22.80;90.40;;;;;;4980270;28;20084;-81
2021/05/18 12:16:52;;;;;;;3.85;3.30;;;22.80;90.40;;;;;;4980014;28;20131;-82
2021/05/18 12:19:19;;;;;;;4.15;3.50;;;22.80;90.40;;;;;;5013524;28;20026;-82
2021/05/18 12:21:52;;;;;;;3.70;3.28;;;22.80;90.40;;;;;;5013828;28;20064;-81
2021/05/18 12:24:27;;;;;;;3.50;3.00;;;22.80;90.40;;;;;;5013897;28;20026;-81
2021/05/18 12:26:59;;;;;;;3.40;2.80;;;22.80;90.40;;;;;;5013303;28;20479;-82
2021/05/18 12:29:30;;;;;;;3.25;2.92;;;22.80;90.40;;;;;;5013820;28;20089;-81
2021/05/18 12:32:12;;;;;;;3.58;3.28;;;22.80;90.50;;;;;;4995786;28;20072;-81
2021/05/18 12:34:38;;;;;;;3.72;2.88;;;22.80;90.40;;;;;;4996011;28;20033;-82
2021/05/18 12:37:03;;;;;;;3.38;3.05;;;22.80;90.40;;;;;;5013054;28;20396;-81
2021/05/18 12:39:33;;;;;;;3.53;2.90;;;22.80;90.40;;;;;;5013680;28;20464;-81
2021/05/18 12:42:04;;;;;;;3.13;2.83;;;22.80;90.40;;;;;;4996228;28;20033;-81
2021/05/18 12:44:33;;;;;;;3.58;3.05;;;22.80;90.40;;;;;;4996421;28;20037;-81
2021/05/18 12:47:06;;;;;;;3.25;2.67;;;22.80;90.40;;;;;;4996291;28;20408;-81
2021/05/18 12:49:40;;;;;;;3.22;2.92;;;22.80;90.40;;;;;;5014119;28;20029;-81
2021/05/18 12:52:08;;;;;;;2.47;2.20;;;22.80;90.40;;;;;;4996399;28;20033;-81
2021/05/18 12:54:43;;;;;;;3.63;3.00;;;22.80;90.40;;;;;;5013622;28;20058;-81
2021/05/18 12:57:11;;;;;;;3.00;2.70;;;22.80;90.40;;;;;;4995842;28;20129;-81
2021/05/18 12:59:56;;;;;;;2.83;2.42;;;22.80;90.40;;;;;;4979873;28;20514;-81
2021/05/18 13:02:33;;;;;;;2.78;2.40;;;22.80;90.40;;;;;;5013484;28;20097;-81
2021/05/18 13:05:26;;;;;;;2.97;2.67;;;22.90;90.40;;;;;;5013178;28;20068;-81
2021/05/18 13:08:09;;;;;;;2.50;2.30;;;22.80;90.40;;;;;;4995693;28;20022;-81
2021/05/18 13:13:38;;;;;;;2.97;2.47;;;22.90;90.40;;;;;;5013345;28;20030;-80
2021/05/18 13:16:25;;;;;;;2.83;2.53;;;22.80;90.40;;;;;;4995298;28;20038;-81
2021/05/18 13:19:06;;;;;;;2.60;2.40;;;22.90;90.40;;;;;;4995910;28;20034;-82
2021/05/18 13:21:59;;;;;;;3.08;2.45;;;22.80;90.40;;;;;;5013429;28;20099;-82
2021/05/18 13:26:50;;;;;;;2.45;2.25;;;22.80;90.40;;;;;;4995559;28;20026;-82
2021/05/18 13:29:19;;;;;;;2.75;2.40;;;22.80;90.40;;;;;;4979277;28;20123;-82
2021/05/18 13:31:55;;;;;;;2.55;2.05;;;22.90;90.40;;;;;;4996122;28;20041;-82
2021/05/18 13:34:22;;;;;;;3.22;2.20;;;22.90;90.40;;;;;;4995864;28;20038;-82
2021/05/18 13:36:48;;;;;;;2.20;2.00;;;22.80;90.40;;;;;;5013514;28;20034;-82
2021/05/18 13:39:19;;;;;;;2.38;2.10;;;22.90;90.40;;;;;;5013247;28;20060;-82
2021/05/18 13:41:45;;;;;;;2.35;2.10;;;22.90;90.40;;;;;;4995549;28;20030;-82
2021/05/18 13:44:12;;;;;;;2.28;2.08;;;22.90;90.40;;;;;;4995196;28;20030;-82
2021/05/18 13:46:38;;;;;;;2.13;1.92;;;22.90;90.40;;;;;;5013022;28;20036;-82
2021/05/18 13:49:04;;;;;;;1.88;1.77;;;22.90;90.40;;;;;;4979389;28;20113;-82
2021/05/18 13:51:30;;;;;;;1.90;1.77;;;22.90;90.30;;;;;;4995847;28;20113;-82
2021/05/18 13:53:56;;;;;;;2.58;2.28;;;22.90;90.30;;;;;;4979955;28;20038;-81
2021/05/18 13:56:26;;;;;;;2.00;1.80;;;22.90;90.30;;;;;;4997740;28;20030;-82
2021/05/18 13:58:52;;;;;;;2.78;2.00;;;22.90;90.30;;;;;;4982629;28;20037;-83
2021/05/18 14:01:19;;;;;;;2.55;2.10;;;22.90;90.30;;;;;;4982359;28;20030;-82
2021/05/18 14:03:47;;;;;;;2.60;2.00;;;22.90;90.30;;;;;;4999055;28;20088;-82
2021/05/18 14:06:14;;;;;;;2.08;1.88;;;22.90;90.30;;;;;;5015793;28;20053;-82
2021/05/18 14:08:41;;;;;;;1.75;1.50;;;22.90;90.30;;;;;;4998724;28;20511;-82
2021/05/18 14:11:14;;;;;;;2.35;1.80;;;22.90;90.30;;;;;;4998132;28;20394;-82
2021/05/18 14:13:41;;;;;;;1.75;1.52;;;22.90;90.30;;;;;;4998307;28;20033;-82
2021/05/18 14:16:14;;;;;;;1.42;1.33;;;22.90;90.30;;;;;;5015870;28;20040;-82
2021/05/18 14:18:39;;;;;;;1.77;1.55;;;22.90;90.30;;;;;;4999608;28;20084;-82
2021/05/18 14:21:05;;;;;;;1.58;1.48;;;22.90;90.30;;;;;;4997919;28;20104;-83
2021/05/18 14:23:43;;;;;;;1.50;1.40;;;22.90;90.30;;;;;;4982012;28;20026;-82
2021/05/18 14:26:09;;;;;;;1.30;1.20;;;22.90;90.30;;;;;;5015449;28;20579;-82
2021/05/18 14:28:36;;;;;;;1.58;1.40;;;22.90;90.30;;;;;;4998496;28;20058;-82
2021/05/18 14:31:04;;;;;;;1.60;1.50;;;22.90;90.30;;;;;;4998524;28;20140;-82
2021/05/18 14:33:30;;;;;;;1.30;1.20;;;22.90;90.30;;;;;;4997924;28;20036;-82
2021/05/18 14:35:56;;;;;;;1.48;1.38;;;22.90;90.30;;;;;;5015298;28;20495;-81
2021/05/18 14:38:24;;;;;;;1.40;1.30;;;22.90;90.30;;;;;;5015272;28;20494;-82
2021/05/18 14:46:27;;;;;;;1.75;1.40;;;22.90;90.30;;;;;;4998976;28;20072;-82
2021/05/18 14:56:42;;;;;;;1.25;1.10;;;22.80;90.20;;;;;;4998150;28;20038;-82
2021/05/18 14:59:08;;;;;;;1.52;1.27;;;22.80;90.20;;;;;;4981106;28;20049;-83
2021/05/18 15:01:34;;;;;;;1.55;1.20;;;22.80;90.20;;;;;;4997577;28;20030;-82
2021/05/18 15:03:59;;;;;;;1.27;1.17;;;22.90;90.40;;;;;;4997546;28;20026;-82
2021/05/18 15:06:25;;;;;;;1.30;1.20;;;22.80;90.20;;;;;;4997001;28;20029;-82
2021/05/18 15:08:50;;;;;;;1.58;1.05;;;22.80;90.10;;;;;;4981326;28;20030;-83
2021/05/18 15:11:16;;;;;;;1.73;1.33;;;22.80;90.10;;;;;;4981396;28;20377;-82
2021/05/18 15:13:42;;;;;;;1.00;0.90;;;22.90;90.10;;;;;;4996869;28;20064;-82
2021/05/18 15:16:07;;;;;;;1.33;1.00;;;22.80;90.00;;;;;;4995265;28;20065;-81
2021/05/18 15:18:34;;;;;;;1.20;1.00;;;22.80;90.10;;;;;;4980524;28;20092;-81
2021/05/18 15:21:01;;;;;;;1.30;1.05;;;22.90;90.10;;;;;;4981093;28;20460;-81
2021/05/18 15:23:28;;;;;;;1.17;1.08;;;22.90;90.10;;;;;;5014060;28;20034;-81
2021/05/18 15:25:54;;;;;;;1.10;1.00;;;22.90;90.00;;;;;;4997439;28;20464;-80
2021/05/18 15:28:20;;;;;;;0.98;0.88;;;22.80;90.00;;;;;;5013795;28;20052;-81
2021/05/18 15:30:46;;;;;;;0.88;0.88;;;22.90;90.00;;;;;;5014621;28;20026;-81
2021/05/18 15:33:13;;;;;;;1.10;1.00;;;22.90;90.00;;;;;;4996516;28;20026;-82
2021/05/18 15:35:39;;;;;;;1.10;0.93;;;22.90;90.00;;;;;;5013975;28;20030;-81
2021/05/18 15:38:04;;;;;;;1.10;1.00;;;22.80;90.00;;;;;;4964592;28;20037;-81
2021/05/18 15:40:31;;;;;;;0.93;0.80;;;22.90;90.00;;;;;;4980556;28;20030;-81
2021/05/18 15:42:57;;;;;;;1.00;0.88;;;22.80;90.00;;;;;;5014209;28;20050;-81
2021/05/18 15:45:22;;;;;;;1.23;1.13;;;22.90;90.00;;;;;;4996621;28;20034;-81
2021/05/18 15:47:48;;;;;;;1.20;1.10;;;22.80;89.90;;;;;;4980365;28;20030;-81
2021/05/18 15:50:15;;;;;;;1.67;1.30;;;22.90;90.00;;;;;;4979856;28;20120;-82
2021/05/18 15:52:41;;;;;;;1.30;1.20;;;22.90;89.90;;;;;;4980488;28;20030;-80
2021/05/18 15:55:07;;;;;;;1.38;1.27;;;22.80;89.90;;;;;;5013842;28;20061;-81
2021/05/18 15:57:33;;;;;;;1.38;1.27;;;22.80;89.80;;;;;;4995615;28;20036;-81
2021/05/18 15:59:59;;;;;;;1.75;1.55;;;22.80;89.80;;;;;;5013919;28;20104;-81
2021/05/18 16:02:24;;;;;;;1.60;1.50;;;22.80;89.80;;;;;;4995887;28;20064;-81
2021/05/18 16:04:50;;;;;;;1.73;1.52;;;22.80;89.80;;;;;;4996349;28;20080;-82
2021/05/18 16:07:18;;;;;;;1.77;1.67;;;22.80;89.80;;;;;;4979696;28;20033;-84
2021/05/18 16:09:43;;;;;;;2.30;2.10;;;22.80;89.80;;;;;;4980276;28;20030;-81
2021/05/18 16:12:10;;;;;;;2.03;1.83;;;22.80;89.80;;;;;;4980026;28;20026;-82
2021/05/18 16:14:37;;;;;;;3.05;2.53;;;22.80;89.80;;;;;;4996185;28;20350;-82
2021/05/18 16:17:03;;;;;;;2.95;2.38;;;22.90;89.70;;;;;;4980077;28;20044;-82
2021/05/18 16:19:29;;;;;;;3.08;2.65;;;22.80;89.60;;;;;;5012769;28;20030;-82
2021/05/18 16:21:55;;;;;;;2.95;2.65;;;22.90;89.70;;;;;;4995943;28;20029;-82
2021/05/18 16:24:22;;;;;;;3.25;2.90;;;22.90;89.70;;;;;;4979131;28;20109;-82
2021/05/18 16:26:49;;;;;;;3.58;2.92;;;22.90;89.70;;;;;;5013588;28;20022;-81
2021/05/18 16:29:15;;;;;;;3.53;2.92;;;22.80;89.60;;;;;;4995883;28;20050;-82
2021/05/18 16:31:41;;;;;;;4.18;3.30;;;22.90;89.70;;;;;;5013046;28;20037;-82
2021/05/18 16:34:07;;;;;;;4.63;3.58;;;22.90;89.70;;;;;;4979572;28;20034;-82
2021/05/18 16:36:32;;;;;;;3.95;3.42;;;22.90;89.70;;;;;;5011712;28;20077;-81
2021/05/18 16:38:58;;;;;;;4.05;3.40;;;22.90;89.70;;;;;;5013497;28;20022;-81
2021/05/18 16:41:24;;;;;;;4.38;3.58;;;22.80;89.80;;;;;;4995673;28;20464;-83
2021/05/18 16:43:50;;;;;;;4.00;3.58;;;22.90;89.70;;;;;;5013290;28;20439;-82
2021/05/18 16:46:15;;;;;;;4.35;3.95;;;22.90;89.70;;;;;;4996102;28;20069;-81
2021/05/18 16:48:41;;;;;;;5.22;4.10;;;22.90;89.70;;;;;;4995801;28;20034;-82
2021/05/18 16:51:09;;;;;;;4.80;4.25;;;22.80;89.60;;;;;;4979635;28;20038;-81
2021/05/18 16:53:35;;;;;;;4.97;4.05;;;22.90;89.70;;;;;;4963850;28;20026;-81
2021/05/18 16:56:02;;;;;;;5.82;4.68;;;22.90;89.60;;;;;;4996165;28;20044;-82
2021/05/18 16:58:28;;;;;;;5.03;4.43;;;22.90;89.60;;;;;;4995640;28;20110;-82
2021/05/18 17:00:54;;;;;;;5.80;5.03;;;22.80;89.50;;;;;;4995993;28;20428;-82
2021/05/18 17:03:19;;;;;;;5.75;5.00;;;22.90;89.50;;;;;;4963666;28;20030;-82
2021/05/18 17:05:45;;;;;;;6.50;5.38;;;22.80;89.50;;;;;;4995279;28;20088;-83
2021/05/18 17:08:11;;;;;;;6.45;5.18;;;22.80;89.60;;;;;;4995415;28;20030;-81
2021/05/18 17:10:39;;;;;;;6.38;5.70;;;22.90;89.70;;;;;;5012916;28;20095;-82
2021/05/18 17:13:06;;;;;;;6.45;5.40;;;22.90;89.70;;;;;;4995479;28;20041;-82
2021/05/18 17:15:32;;;;;;;7.25;5.95;;;22.90;90.10;;;;;;5013006;28;20061;-82
2021/05/18 17:17:58;;;;;;;7.75;6.20;;;22.80;89.60;;;;;;5013236;28;20034;-81
2021/05/18 17:20:26;;;;;;;7.35;6.40;;;22.90;89.70;;;;;;5013201;28;20026;-81
2021/05/18 17:22:53;;;;;;;8.18;6.65;;;22.90;89.60;;;;;;4995630;28;20499;-80
2021/05/18 17:25:19;;;;;;;6.70;5.80;;;22.90;89.60;;;;;;4995798;28;20034;-81
2021/05/18 17:27:45;;;;;;;8.82;6.68;;;22.90;89.60;;;;;;5013199;28;20475;-81
2021/05/18 17:30:15;;;;;;;8.77;7.35;;;22.90;89.60;;;;;;4996470;28;20408;-81
2021/05/18 17:32:40;;;;;;;8.02;6.65;;;22.90;89.50;;;;;;4998944;28;20071;-81
2021/05/18 17:35:07;;;;;;;9.30;7.57;;;22.90;89.50;;;;;;4999479;28;20612;-81
2021/05/18 17:37:33;;;;;;;8.48;7.20;;;22.90;89.50;;;;;;4983115;28;20088;-81
2021/05/18 17:39:59;;;;;;;8.77;7.47;;;22.90;89.50;;;;;;4999307;28;20034;-81
2021/05/18 17:42:24;;;;;;;9.05;7.60;;;22.90;89.50;;;;;;5017039;28;20026;-81
2021/05/18 17:44:53;;;;;;;8.50;7.15;;;22.90;89.50;;;;;;4998889;28;20103;-81
2021/05/18 17:47:19;;;;;;;9.80;8.05;;;22.90;89.40;;;;;;5000093;28;20068;-80
2021/05/18 17:49:45;;;;;;;9.40;8.10;;;22.90;89.40;;;;;;4999137;28;20030;-81
2021/05/18 17:52:10;;;;;;;9.93;8.15;;;22.80;89.40;;;;;;4983104;28;20032;-82
2021/05/18 17:54:43;;;;;;;10.80;8.73;;;22.80;89.40;;;;;;4998947;28;20468;-80